createdAt,value
2023-03-22T00:02:30.588Z,8.10
2023-03-22T00:05:03.296Z,8.10
2023-03-22T00:07:35.675Z,8.12
2023-03-22T00:10:11.819Z,8.12
2023-03-22T00:12:44.283Z,8.13
2023-03-22T00:15:16.663Z,8.13
2023-03-22T00:17:50.349Z,8.13
2023-03-22T00:20:23.729Z,8.15
2023-03-22T00:22:56.198Z,8.14
2023-03-22T00:25:28.896Z,8.14
2023-03-22T00:28:01.192Z,8.15
2023-03-22T00:30:33.608Z,8.16
2023-03-22T00:33:06.390Z,8.17
2023-03-22T00:35:38.602Z,8.18
2023-03-22T00:38:14.509Z,8.19
2023-03-22T00:40:47.883Z,8.16
2023-03-22T00:43:20.486Z,8.13
2023-03-22T00:45:52.888Z,8.11
2023-03-22T00:48:25.192Z,8.14
2023-03-22T00:50:57.648Z,8.15
2023-03-22T00:53:30.457Z,8.15
2023-03-22T00:56:02.806Z,8.16
2023-03-22T00:58:40.585Z,8.18
2023-03-22T01:01:14.840Z,8.19
2023-03-22T01:03:50.829Z,8.20
2023-03-22T01:06:23.469Z,8.21
2023-03-22T01:08:57.600Z,8.22
2023-03-22T01:11:30.604Z,8.22
2023-03-22T01:14:03.913Z,8.22
2023-03-22T01:16:36.308Z,8.21
2023-03-22T01:19:08.853Z,8.21
2023-03-22T01:21:41.162Z,8.21
2023-03-22T01:24:13.586Z,8.20
2023-03-22T01:26:46.011Z,8.20
2023-03-22T01:29:18.683Z,8.23
2023-03-22T01:31:51.038Z,8.25
2023-03-22T01:34:23.519Z,8.27
2023-03-22T01:36:56.277Z,8.26
2023-03-22T01:39:29.020Z,8.25
2023-03-22T01:42:05.615Z,8.24
2023-03-22T01:44:39.830Z,8.24
2023-03-22T01:47:12.865Z,8.23
2023-03-22T01:49:45.188Z,8.22
2023-03-22T01:52:18.076Z,8.21
2023-03-22T01:55:09.489Z,8.22
2023-03-22T01:57:47.476Z,8.23
2023-03-22T02:00:27.958Z,8.20
2023-03-22T02:03:20.491Z,8.20
2023-03-22T02:05:53.930Z,8.20
2023-03-22T02:08:27.884Z,8.18
2023-03-22T02:11:05.655Z,8.14
2023-03-22T02:13:56.185Z,8.13
2023-03-22T02:16:57.170Z,8.13
2023-03-22T02:19:52.134Z,8.10
2023-03-22T02:22:58.468Z,8.07
2023-03-22T02:25:42.698Z,8.04
2023-03-22T02:28:24.302Z,8.00
2023-03-22T02:31:18.262Z,7.98
2023-03-22T02:34:27.371Z,7.96
2023-03-22T02:37:18.514Z,7.93
2023-03-22T02:39:55.182Z,7.90
2023-03-22T02:42:36.175Z,7.89
2023-03-22T02:45:16.235Z,7.87
2023-03-22T02:47:57.611Z,7.86
2023-03-22T02:50:36.720Z,7.84
2023-03-22T02:53:16.160Z,7.82
2023-03-22T02:55:53.653Z,7.78
2023-03-22T02:58:30.105Z,7.73
2023-03-22T03:01:07.333Z,7.71
2023-03-22T03:03:40.852Z,7.70
2023-03-22T03:06:19.338Z,7.70
2023-03-22T03:08:53.516Z,7.68
2023-03-22T03:11:26.018Z,7.66
2023-03-22T03:13:58.947Z,7.64
2023-03-22T03:16:36.792Z,7.62
2023-03-22T03:19:21.262Z,7.59
2023-03-22T03:22:02.218Z,7.56
2023-03-22T03:24:40.974Z,7.54
2023-03-22T03:27:20.248Z,7.54
2023-03-22T03:30:01.509Z,7.53
2023-03-22T03:32:37.549Z,7.52
2023-03-22T03:35:22.640Z,7.51
2023-03-22T03:38:01.535Z,7.50
2023-03-22T03:40:38.880Z,7.51
2023-03-22T03:43:12.087Z,7.54
2023-03-22T03:45:45.808Z,7.55
2023-03-22T03:48:22.993Z,7.57
2023-03-22T03:50:57.788Z,7.60
2023-03-22T03:53:30.313Z,7.62
2023-03-22T03:56:02.715Z,7.63
2023-03-22T03:58:40.969Z,7.65
2023-03-22T04:01:13.766Z,7.66
2023-03-22T04:04:15.618Z,7.67
2023-03-22T04:07:00.722Z,7.67
2023-03-22T04:09:37.031Z,7.66
2023-03-22T04:12:31.362Z,7.67
2023-03-22T04:15:18.354Z,7.69
2023-03-22T04:17:55.082Z,7.67
2023-03-22T04:20:29.927Z,7.68
2023-03-22T04:23:02.415Z,7.68
2023-03-22T04:25:38.029Z,7.67
2023-03-22T04:28:14.360Z,7.68
2023-03-22T04:30:46.847Z,7.69
2023-03-22T04:33:28.167Z,7.72
2023-03-22T04:36:17.588Z,7.74
2023-03-22T04:39:11.170Z,7.75
2023-03-22T04:41:44.076Z,7.75
2023-03-22T04:44:16.486Z,7.72
2023-03-22T04:46:55.993Z,7.72
2023-03-22T04:49:28.411Z,7.73
2023-03-22T04:52:01.008Z,7.73
2023-03-22T04:54:43.170Z,7.72
2023-03-22T04:57:15.580Z,7.73
2023-03-22T04:59:51.050Z,7.74
2023-03-22T05:02:23.586Z,7.74
2023-03-22T05:04:56.215Z,7.72
2023-03-22T05:07:36.607Z,7.74
2023-03-22T05:10:11.031Z,7.74
2023-03-22T05:12:42.646Z,7.75
2023-03-22T05:15:22.771Z,7.74
2023-03-22T05:17:56.864Z,7.75
2023-03-22T05:20:29.262Z,7.77
2023-03-22T05:23:23.636Z,7.78
2023-03-22T05:26:01.748Z,7.79
2023-03-22T05:28:34.511Z,7.81
2023-03-22T05:31:15.691Z,7.85
2023-03-22T05:33:53.286Z,7.87
2023-03-22T05:36:26.212Z,7.86
2023-03-22T05:39:24.437Z,7.85
2023-03-22T05:41:57.350Z,7.84
2023-03-22T05:44:29.794Z,7.87
2023-03-22T05:47:13.670Z,7.91
2023-03-22T05:50:07.495Z,7.94
2023-03-22T05:52:40.158Z,7.92
2023-03-22T05:55:33.343Z,7.93
2023-03-22T05:58:08.556Z,7.95
2023-03-22T06:00:43.313Z,7.98
2023-03-22T06:03:35.995Z,8.01
2023-03-22T06:06:16.684Z,8.03
2023-03-22T06:09:07.249Z,8.05
2023-03-22T06:11:47.015Z,8.06
2023-03-22T06:14:20.469Z,8.06
2023-03-22T06:17:08.247Z,8.08
2023-03-22T06:19:40.624Z,8.09
2023-03-22T06:22:13.625Z,8.08
2023-03-22T06:24:46.099Z,8.09
2023-03-22T06:27:22.588Z,8.11
2023-03-22T06:29:55.248Z,8.13
2023-03-22T06:32:30.022Z,8.15
2023-03-22T06:35:03.026Z,8.15
2023-03-22T06:37:35.419Z,8.16
2023-03-22T06:40:11.841Z,8.17
2023-03-22T06:42:44.257Z,8.18
2023-03-22T06:45:18.164Z,8.18
2023-03-22T06:47:51.832Z,8.21
2023-03-22T06:50:44.081Z,8.22
2023-03-22T06:53:24.120Z,8.22
2023-03-22T06:55:56.674Z,8.21
2023-03-22T06:58:30.078Z,8.21
2023-03-22T07:01:03.618Z,8.21
2023-03-22T07:03:37.469Z,8.21
2023-03-22T07:06:15.148Z,8.22
2023-03-22T07:08:52.017Z,8.21
2023-03-22T07:11:27.997Z,8.21
2023-03-22T07:14:05.539Z,8.21
2023-03-22T07:16:53.708Z,8.20
2023-03-22T07:19:27.863Z,8.20
2023-03-22T07:22:00.623Z,8.23
2023-03-22T07:24:33.423Z,8.22
2023-03-22T07:27:07.878Z,8.25
2023-03-22T07:29:41.342Z,8.28
2023-03-22T07:32:14.007Z,8.30
2023-03-22T07:34:59.413Z,8.32
2023-03-22T07:37:31.776Z,8.34
2023-03-22T07:40:05.338Z,8.38
2023-03-22T07:42:37.896Z,8.39
2023-03-22T07:45:28.769Z,8.39
2023-03-22T07:48:22.977Z,8.42
2023-03-22T07:51:21.529Z,8.45
2023-03-22T07:53:54.352Z,8.45
2023-03-22T07:56:26.803Z,8.44
2023-03-22T07:58:59.333Z,8.44
2023-03-22T08:01:32.008Z,8.46
2023-03-22T08:04:10.755Z,8.49
2023-03-22T08:06:54.933Z,8.54
2023-03-22T08:09:27.643Z,8.55
2023-03-22T08:12:00.954Z,8.54
2023-03-22T08:14:36.835Z,8.57
2023-03-22T08:17:12.456Z,8.59
2023-03-22T08:19:45.420Z,8.60
2023-03-22T08:22:18.552Z,8.61
2023-03-22T08:25:19.782Z,8.59
2023-03-22T08:27:53.059Z,8.62
2023-03-22T08:30:25.476Z,8.66
2023-03-22T08:32:58.388Z,8.67
2023-03-22T08:35:30.899Z,8.67
2023-03-22T08:38:03.641Z,8.69
2023-03-22T08:40:43.089Z,8.70
2023-03-22T08:43:15.475Z,8.70
2023-03-22T08:45:48.861Z,8.72
2023-03-22T08:48:22.215Z,8.74
2023-03-22T08:51:10.745Z,8.75
2023-03-22T08:54:09.798Z,8.76
2023-03-22T08:57:03.345Z,8.76
2023-03-22T08:59:59.069Z,8.78
2023-03-22T09:02:44.515Z,8.81
2023-03-22T09:05:17.101Z,8.82
2023-03-22T09:07:52.589Z,8.85
2023-03-22T09:10:41.008Z,8.86
2023-03-22T09:13:16.639Z,8.88
2023-03-22T09:15:54.686Z,8.92
2023-03-22T09:18:32.699Z,8.94
2023-03-22T09:21:10.186Z,8.94
2023-03-22T09:23:55.105Z,8.95
2023-03-22T09:26:32.642Z,8.96
2023-03-22T09:29:05.250Z,8.97
2023-03-22T09:31:39.269Z,8.99
2023-03-22T09:34:27.178Z,9.01
2023-03-22T09:37:02.530Z,9.05
2023-03-22T09:39:38.851Z,9.08
2023-03-22T09:42:29.398Z,9.11
2023-03-22T09:45:05.216Z,9.13
2023-03-22T09:47:44.988Z,9.15
2023-03-22T09:50:23.236Z,9.18
2023-03-22T09:52:56.358Z,9.24
2023-03-22T09:55:38.732Z,9.27
2023-03-22T09:58:24.672Z,9.34
2023-03-22T10:01:02.364Z,9.36
2023-03-22T10:04:14.972Z,9.37
2023-03-22T10:06:52.086Z,9.39
2023-03-22T10:09:29.718Z,9.42
2023-03-22T10:12:09.204Z,9.47
2023-03-22T10:14:47.992Z,9.50
2023-03-22T10:17:25.331Z,9.52
2023-03-22T10:20:01.875Z,9.54
2023-03-22T10:22:39.401Z,9.56
2023-03-22T10:25:17.165Z,9.59
2023-03-22T10:27:52.685Z,9.62
2023-03-22T10:30:27.542Z,9.64
2023-03-22T10:33:03.685Z,9.70
2023-03-22T10:35:36.383Z,9.72
2023-03-22T10:38:17.805Z,9.74
2023-03-22T10:40:54.083Z,9.78
2023-03-22T10:43:33.102Z,9.80
2023-03-22T10:46:09.210Z,9.81
2023-03-22T10:48:45.340Z,9.83
2023-03-22T10:51:26.751Z,9.85
2023-03-22T10:54:01.653Z,9.90
2023-03-22T10:56:33.918Z,9.91
2023-03-22T10:59:06.213Z,9.91
2023-03-22T11:01:45.260Z,9.94
2023-03-22T11:04:18.280Z,9.97
2023-03-22T11:06:56.434Z,10.00
2023-03-22T11:09:28.921Z,10.03
2023-03-22T11:12:02.394Z,10.05
2023-03-22T11:14:37.387Z,10.09
2023-03-22T11:17:14.664Z,10.12
2023-03-22T11:19:56.918Z,10.13
2023-03-22T11:22:35.872Z,10.14
2023-03-22T11:25:15.649Z,10.16
2023-03-22T11:27:56.271Z,10.19
2023-03-22T11:30:32.567Z,10.22
2023-03-22T11:33:18.806Z,10.27
2023-03-22T11:35:57.853Z,10.30
2023-03-22T11:38:36.722Z,10.32
2023-03-22T11:41:16.992Z,10.36
2023-03-22T11:43:54.368Z,10.39
2023-03-22T11:46:27.330Z,10.41
2023-03-22T11:49:03.848Z,10.43
2023-03-22T11:51:39.742Z,10.43
2023-03-22T11:54:20.786Z,10.45
2023-03-22T11:56:55.867Z,10.47
2023-03-22T11:59:27.946Z,10.49
2023-03-22T12:02:06.676Z,10.49
2023-03-22T12:04:42.177Z,10.49
2023-03-22T12:07:19.556Z,10.51
2023-03-22T12:09:59.123Z,10.51
2023-03-22T12:12:37.123Z,10.53
2023-03-22T12:15:18.847Z,10.55
2023-03-22T12:17:57.843Z,10.56
2023-03-22T12:20:41.304Z,10.59
2023-03-22T12:23:19.393Z,10.63
2023-03-22T12:25:56.386Z,10.66
2023-03-22T12:28:34.661Z,10.69
2023-03-22T12:31:11.790Z,10.71
2023-03-22T12:33:48.374Z,10.74
2023-03-22T12:36:23.398Z,10.76
2023-03-22T12:38:56.082Z,10.77
2023-03-22T12:41:33.646Z,10.78
2023-03-22T12:44:12.302Z,10.79
2023-03-22T12:46:51.816Z,10.80
2023-03-22T12:49:31.232Z,10.83
2023-03-22T12:52:13.306Z,10.86
2023-03-22T12:54:48.129Z,10.91
2023-03-22T12:57:20.957Z,10.95
2023-03-22T12:59:56.912Z,11.02
2023-03-22T13:02:32.749Z,11.08
2023-03-22T13:05:09.368Z,11.13
2023-03-22T13:07:54.458Z,11.17
2023-03-22T13:11:11.777Z,11.21
2023-03-22T13:13:48.986Z,11.24
2023-03-22T13:16:24.855Z,11.28
2023-03-22T13:19:03.197Z,11.31
2023-03-22T13:21:39.748Z,11.33
2023-03-22T13:24:26.498Z,11.35
2023-03-22T13:27:02.166Z,11.39
2023-03-22T13:29:41.969Z,11.42
2023-03-22T13:32:33.472Z,11.46
2023-03-22T13:35:22.020Z,11.50
2023-03-22T13:37:55.555Z,11.54
2023-03-22T13:40:36.307Z,11.58
2023-03-22T13:43:29.002Z,11.62
2023-03-22T13:46:44.935Z,11.65
2023-03-22T13:49:32.987Z,11.71
2023-03-22T13:52:10.672Z,11.73
2023-03-22T13:54:49.623Z,11.77
2023-03-22T13:57:45.607Z,11.78
2023-03-22T14:00:44.913Z,11.79
2023-03-22T14:03:25.664Z,11.81
2023-03-22T14:06:07.445Z,11.84
2023-03-22T14:08:41.816Z,11.86
2023-03-22T14:11:31.036Z,11.90
2023-03-22T14:14:07.925Z,11.93
2023-03-22T14:16:43.835Z,11.97
2023-03-22T14:19:21.646Z,11.99
